Time;durP1;ratioP1;P1;durP2;ratioP2;P2;SDS_P1;SDS_P2;PMS_P1;PMS_P2;Temp;Humidity;BMP_temperature;BMP_pressure;BME280_temperature;BME280_humidity;BME280_pressure;Samples;Min_cycle;Max_cycle;Signal;HPM_P1;HPM_P2
2021/08/11 00:00:12;;;;;;;7.72;4.93;;;;;;;13.59;100.00;94174.19;5075992;28;20290;-77
2021/08/11 00:02:38;;;;;;;7.60;4.95;;;;;;;13.55;100.00;94168.53;5076117;28;20206;-77
2021/08/11 00:05:06;;;;;;;9.23;5.22;;;;;;;13.55;100.00;94173.78;5076019;28;20198;-78
2021/08/11 00:07:34;;;;;;;10.00;4.43;;;;;;;13.55;100.00;94165.91;5075942;28;20194;-77
2021/08/11 00:10:00;;;;;;;8.27;4.90;;;;;;;13.49;100.00;94158.91;5075702;28;20222;-78
2021/08/11 00:12:27;;;;;;;9.57;5.03;;;;;;;13.50;100.00;94171.00;5075639;28;20543;-78
2021/08/11 00:14:53;;;;;;;7.95;4.57;;;;;;;13.49;100.00;94169.41;5075685;28;20206;-79
2021/08/11 00:17:20;;;;;;;9.50;5.25;;;;;;;13.47;100.00;94171.41;5075870;28;20205;-79
2021/08/11 00:19:47;;;;;;;11.15;5.25;;;;;;;13.43;100.00;94175.47;5075597;28;20202;-78
2021/08/11 00:22:13;;;;;;;10.65;5.15;;;;;;;13.42;100.00;94177.28;5075665;28;20199;-78
2021/08/11 00:24:41;;;;;;;11.43;5.00;;;;;;;13.41;100.00;94170.44;5075962;28;20202;-78
2021/08/11 00:27:08;;;;;;;14.43;5.15;;;;;;;13.44;100.00;94174.44;5075719;28;20202;-78
2021/08/11 00:29:35;;;;;;;9.77;4.75;;;;;;;13.48;100.00;94165.16;5075603;28;20233;-77
2021/08/11 00:32:02;;;;;;;11.45;5.30;;;;;;;13.46;100.00;94167.97;5075057;28;20199;-78
2021/08/11 00:34:28;;;;;;;11.55;5.20;;;;;;;13.46;100.00;94161.94;5075445;28;20203;-77
2021/08/11 00:36:55;;;;;;;9.75;4.95;;;;;;;13.46;100.00;94175.06;5075320;28;20228;-78
2021/08/11 00:39:22;;;;;;;8.77;4.65;;;;;;;13.41;100.00;94175.69;5075262;28;20203;-77
2021/08/11 00:41:50;;;;;;;9.98;5.35;;;;;;;13.41;100.00;94173.06;5075246;28;20203;-77
2021/08/11 00:44:16;;;;;;;13.30;5.25;;;;;;;13.39;100.00;94174.25;5075131;28;20227;-78
2021/08/11 00:46:44;;;;;;;11.23;5.10;;;;;;;13.32;100.00;94169.88;5075353;28;20210;-76
2021/08/11 00:49:12;;;;;;;9.43;4.72;;;;;;;13.35;100.00;94170.47;5075020;28;20225;-77
2021/08/11 00:51:39;;;;;;;11.82;4.72;;;;;;;13.32;100.00;94175.09;5075159;28;20206;-78
2021/08/11 00:54:06;;;;;;;11.93;5.03;;;;;;;13.29;100.00;94172.06;5074929;28;20649;-77
2021/08/11 00:56:34;;;;;;;11.55;5.35;;;;;;;13.25;100.00;94169.03;5075141;28;20206;-77
2021/08/11 00:59:03;;;;;;;8.05;5.05;;;;;;;13.30;100.00;94165.78;5075086;28;20285;-78
2021/08/11 01:01:31;;;;;;;9.15;4.60;;;;;;;13.22;100.00;94166.84;5074953;28;20309;-76
2021/08/11 01:03:59;;;;;;;8.88;4.60;;;;;;;13.16;100.00;94164.25;5074899;28;20228;-77
2021/08/11 01:06:26;;;;;;;8.25;5.10;;;;;;;13.05;100.00;94170.91;5074806;28;20199;-77
2021/08/11 01:08:54;;;;;;;8.95;5.18;;;;;;;12.97;100.00;94161.44;5073736;28;20226;-78
2021/08/11 01:11:22;;;;;;;12.23;5.13;;;;;;;13.06;100.00;94164.69;5074624;28;20202;-77
2021/08/11 01:13:49;;;;;;;11.68;5.55;;;;;;;13.10;100.00;94165.84;5074616;28;20281;-79
2021/08/11 01:16:17;;;;;;;8.88;5.28;;;;;;;13.09;100.00;94169.47;5074539;28;20677;-78
2021/08/11 01:18:44;;;;;;;8.10;5.37;;;;;;;13.08;100.00;94170.50;5074631;28;20764;-76
2021/08/11 01:21:15;;;;;;;16.13;5.63;;;;;;;13.15;100.00;94171.28;5074375;28;20210;-79
2021/08/11 01:23:50;;;;;;;11.90;5.20;;;;;;;13.21;100.00;94165.22;5074615;28;20206;-77
2021/08/11 01:26:27;;;;;;;12.90;5.37;;;;;;;13.23;100.00;94157.94;5074476;28;20210;-78
2021/08/11 01:29:01;;;;;;;12.15;5.78;;;;;;;13.23;100.00;94163.19;5074603;28;20446;-77
2021/08/11 01:31:42;;;;;;;13.20;5.28;;;;;;;13.30;100.00;94160.56;5074534;28;20206;-78
2021/08/11 01:34:15;;;;;;;10.53;5.83;;;;;;;13.28;100.00;94155.50;5074484;28;20202;-78
2021/08/11 01:36:49;;;;;;;7.70;4.80;;;;;;;13.33;100.00;94160.97;5074365;28;20203;-78
2021/08/11 01:39:36;;;;;;;8.82;4.43;;;;;;;13.35;100.00;94152.09;5074118;28;20206;-78
2021/08/11 01:42:06;;;;;;;8.23;5.27;;;;;;;13.31;100.00;94155.09;5073975;28;20289;-77
2021/08/11 01:44:43;;;;;;;10.63;5.05;;;;;;;13.23;100.00;94155.31;5074019;28;20315;-78
2021/08/11 01:47:17;;;;;;;12.77;4.90;;;;;;;13.19;100.00;94155.94;5074112;28;20210;-77
2021/08/11 01:49:46;;;;;;;11.13;5.10;;;;;;;13.19;100.00;94146.28;5073821;28;20230;-78
2021/08/11 01:52:15;;;;;;;11.35;5.30;;;;;;;13.19;100.00;94146.28;5073768;28;20684;-77
2021/08/11 01:54:43;;;;;;;7.97;4.38;;;;;;;13.14;100.00;94146.91;5073730;28;20198;-80
2021/08/11 01:57:12;;;;;;;10.43;5.45;;;;;;;13.14;100.00;94151.34;5073955;28;20195;-79
2021/08/11 01:59:41;;;;;;;8.75;4.75;;;;;;;13.08;100.00;94149.53;5073761;28;20222;-79
2021/08/11 02:02:09;;;;;;;13.70;5.30;;;;;;;13.06;100.00;94149.75;5073720;28;20229;-79
2021/08/11 02:04:37;;;;;;;9.02;5.20;;;;;;;13.06;100.00;94155.00;5073503;28;20214;-78
2021/08/11 02:07:05;;;;;;;9.77;5.18;;;;;;;13.07;100.00;94153.16;5073463;28;20209;-78
2021/08/11 02:09:32;;;;;;;9.60;4.97;;;;;;;13.02;100.00;94151.16;5073443;28;20253;-78
2021/08/11 02:11:59;;;;;;;9.25;4.97;;;;;;;13.01;100.00;94151.38;5073605;28;20650;-78
2021/08/11 02:14:26;;;;;;;10.10;4.90;;;;;;;13.01;100.00;94151.38;5073787;28;20665;-78
2021/08/11 02:16:52;;;;;;;9.25;5.57;;;;;;;12.96;100.00;94155.41;5073528;28;20565;-77
2021/08/11 02:19:19;;;;;;;11.27;4.90;;;;;;;13.00;100.00;94153.19;5073378;28;20371;-77
2021/08/11 02:21:45;;;;;;;10.00;4.90;;;;;;;12.98;100.00;94154.41;5073312;28;20199;-77
2021/08/11 02:24:14;;;;;;;10.82;5.40;;;;;;;12.93;100.00;94157.63;5072947;28;20194;-77
2021/08/11 02:26:46;;;;;;;10.75;5.55;;;;;;;12.92;100.00;94145.53;5073367;28;20803;-78
2021/08/11 02:29:22;;;;;;;12.00;6.18;;;;;;;12.93;100.00;94147.97;5073288;28;20276;-79
2021/08/11 02:31:57;;;;;;;12.68;6.07;;;;;;;12.96;100.00;94141.50;5073347;28;20201;-79
2021/08/11 02:34:33;;;;;;;9.65;5.50;;;;;;;12.95;100.00;94145.13;5073408;28;20560;-78
2021/08/11 02:37:03;;;;;;;15.52;6.15;;;;;;;12.99;100.00;94148.13;5073381;28;20256;-78
2021/08/11 02:39:40;;;;;;;12.35;5.00;;;;;;;12.93;100.00;94142.72;5073047;28;20199;-77
2021/08/11 02:42:12;;;;;;;11.20;5.40;;;;;;;12.89;100.00;94138.09;5073078;28;20198;-78
2021/08/11 02:44:45;;;;;;;11.80;5.40;;;;;;;12.95;100.00;94135.44;5072978;28;20237;-79
2021/08/11 02:47:12;;;;;;;11.98;5.72;;;;;;;12.89;100.00;94141.53;5073106;28;20202;-78
2021/08/11 02:49:39;;;;;;;8.77;5.65;;;;;;;12.84;100.00;94143.97;5073036;28;20233;-79
2021/08/11 02:52:07;;;;;;;14.13;6.30;;;;;;;12.92;100.00;94135.06;5073008;28;20569;-79
2021/08/11 02:54:40;;;;;;;10.65;6.05;;;;;;;12.95;100.00;94124.97;5072860;28;20202;-79
2021/08/11 02:57:08;;;;;;;13.33;6.17;;;;;;;12.92;100.00;94125.41;5072790;28;20199;-78
2021/08/11 02:59:36;;;;;;;10.57;5.75;;;;;;;12.91;100.00;94126.41;5072996;28;20213;-78
2021/08/11 03:02:03;;;;;;;12.82;5.75;;;;;;;12.89;100.00;94131.03;5072953;28;20564;-78
2021/08/11 03:04:30;;;;;;;14.50;5.78;;;;;;;12.98;100.00;94122.97;5073052;28;20561;-78
2021/08/11 03:06:57;;;;;;;11.85;5.85;;;;;;;12.98;100.00;94130.81;5072901;28;20248;-78
2021/08/11 03:09:24;;;;;;;14.40;6.27;;;;;;;13.06;100.00;94130.59;5073155;28;20246;-78
2021/08/11 03:11:52;;;;;;;14.60;6.22;;;;;;;13.05;100.00;94134.22;5072955;28;20199;-78
2021/08/11 03:14:19;;;;;;;12.27;5.90;;;;;;;13.13;100.00;94140.03;5072866;28;20202;-78
2021/08/11 03:16:46;;;;;;;10.57;5.93;;;;;;;13.05;100.00;94136.84;5072569;28;20206;-79
2021/08/11 03:19:12;;;;;;;9.10;5.27;;;;;;;13.00;100.00;94139.28;5072740;28;20206;-79
2021/08/11 03:21:39;;;;;;;10.57;6.07;;;;;;;13.00;100.00;94141.91;5072707;28;20653;-77
2021/08/11 03:24:06;;;;;;;18.00;6.50;;;;;;;13.13;100.00;94142.66;5072573;28;20221;-78
2021/08/11 03:26:33;;;;;;;12.07;6.57;;;;;;;13.17;100.00;94145.66;5072722;28;20202;-80
2021/08/11 03:29:01;;;;;;;12.50;6.27;;;;;;;13.29;100.00;94146.66;5072679;28;20195;-79
2021/08/11 03:31:28;;;;;;;10.93;5.50;;;;;;;13.32;100.00;94145.44;5073661;28;20294;-79
2021/08/11 03:33:55;;;;;;;11.00;5.77;;;;;;;13.31;100.00;94144.59;5076505;28;20209;-79
2021/08/11 03:36:24;;;;;;;10.52;6.03;;;;;;;13.21;100.00;94144.25;5076546;28;20203;-79
2021/08/11 03:38:53;;;;;;;10.93;5.53;;;;;;;13.16;100.00;94149.31;5076368;28;20205;-79
2021/08/11 03:41:20;;;;;;;8.45;4.93;;;;;;;13.10;100.00;94152.75;5076477;28;20207;-78
2021/08/11 03:43:46;;;;;;;10.82;5.50;;;;;;;13.02;100.00;94147.72;5076445;28;20565;-79
2021/08/11 03:46:14;;;;;;;10.73;5.40;;;;;;;12.96;100.00;94152.78;5076077;28;20234;-79
2021/08/11 03:48:44;;;;;;;12.63;5.60;;;;;;;12.91;100.00;94142.13;5076233;28;20223;-79
2021/08/11 03:51:16;;;;;;;10.10;5.63;;;;;;;12.90;100.00;94147.56;5076049;28;20230;-78
2021/08/11 03:53:42;;;;;;;12.25;5.85;;;;;;;12.92;100.00;94151.59;5076416;28;20203;-79
2021/08/11 03:56:09;;;;;;;13.77;5.97;;;;;;;13.04;100.00;94145.69;5075799;28;20205;-78
2021/08/11 03:58:38;;;;;;;14.53;6.33;;;;;;;13.12;100.00;94145.47;5075947;28;20670;-78
2021/08/11 04:01:07;;;;;;;17.67;6.20;;;;;;;13.19;100.00;94148.91;5076146;28;20203;-78
2021/08/11 04:03:37;;;;;;;10.82;6.57;;;;;;;13.27;100.00;94148.69;5075881;28;20201;-78
2021/08/11 04:06:05;;;;;;;15.80;6.18;;;;;;;13.37;100.00;94147.44;5076092;28;20199;-79
2021/08/11 04:08:33;;;;;;;11.73;6.00;;;;;;;13.41;100.00;94138.97;5075771;28;20592;-79
2021/08/11 04:11:00;;;;;;;12.10;5.25;;;;;;;13.38;100.00;94146.44;5075787;28;20235;-79
2021/08/11 04:13:26;;;;;;;13.60;6.22;;;;;;;13.39;100.00;94150.66;5075740;28;21026;-78
2021/08/11 04:15:53;;;;;;;10.32;5.03;;;;;;;13.24;100.00;94149.09;5075422;28;20199;-79
2021/08/11 04:18:19;;;;;;;12.98;5.63;;;;;;;13.18;100.00;94147.28;5073436;28;20195;-78
2021/08/11 04:20:47;;;;;;;11.97;5.40;;;;;;;13.10;100.00;94148.31;5075501;28;20703;-78
2021/08/11 04:23:16;;;;;;;10.73;5.73;;;;;;;13.09;100.00;94148.50;5075538;28;20294;-79
2021/08/11 04:25:42;;;;;;;9.27;5.55;;;;;;;13.06;100.00;94152.38;5075751;28;20293;-79
2021/08/11 04:28:09;;;;;;;13.43;6.97;;;;;;;13.18;100.00;94155.16;5075500;28;20199;-79
2021/08/11 04:30:37;;;;;;;12.90;5.63;;;;;;;13.25;100.00;94157.75;5075420;28;20230;-79
2021/08/11 04:33:06;;;;;;;15.33;6.53;;;;;;;13.21;100.00;94149.50;5075537;28;20229;-79
2021/08/11 04:35:33;;;;;;;12.20;5.90;;;;;;;13.28;100.00;94149.47;5075278;28;20195;-78
2021/08/11 04:38:01;;;;;;;10.15;6.20;;;;;;;13.36;100.00;94145.84;5074976;28;20195;-79
2021/08/11 04:40:27;;;;;;;10.20;5.95;;;;;;;13.49;100.00;94159.69;5075413;28;20203;-78
2021/08/11 04:42:54;;;;;;;15.52;6.28;;;;;;;13.57;100.00;94153.41;5074104;28;20294;-79
2021/08/11 04:45:20;;;;;;;11.82;6.20;;;;;;;13.66;100.00;94160.03;5074953;28;20234;-78
2021/08/11 04:47:50;;;;;;;11.93;6.05;;;;;;;13.69;100.00;94150.94;5075261;28;20202;-78
2021/08/11 04:50:16;;;;;;;12.15;5.68;;;;;;;13.71;100.00;94151.53;5075124;28;20230;-79
2021/08/11 04:52:43;;;;;;;8.05;5.28;;;;;;;13.75;100.00;94149.28;5074961;28;20198;-78
2021/08/11 04:55:14;;;;;;;14.98;5.85;;;;;;;13.76;100.00;94153.53;5074927;28;20565;-79
2021/08/11 04:57:41;;;;;;;14.95;6.28;;;;;;;13.77;100.00;94148.06;5074900;28;20719;-78
2021/08/11 05:00:11;;;;;;;7.97;5.00;;;;;;;13.77;100.00;94155.13;5075187;28;20202;-78
2021/08/11 05:02:38;;;;;;;13.43;5.60;;;;;;;13.77;100.00;94152.50;5075150;28;20199;-79
2021/08/11 05:05:07;;;;;;;12.10;5.30;;;;;;;13.78;100.00;94151.50;5074750;28;20290;-78
2021/08/11 05:07:35;;;;;;;9.10;5.07;;;;;;;13.82;100.00;94157.91;5074757;28;20195;-79
2021/08/11 05:10:02;;;;;;;13.52;5.78;;;;;;;13.91;100.00;94164.53;5074756;28;20288;-79
2021/08/11 05:12:30;;;;;;;9.00;5.30;;;;;;;13.96;100.00;94156.81;5074754;28;20203;-79
2021/08/11 05:14:58;;;;;;;8.00;4.80;;;;;;;14.07;100.00;94164.03;5074968;28;20752;-79
2021/08/11 05:17:27;;;;;;;9.50;5.05;;;;;;;14.21;100.00;94158.69;5075316;28;20199;-80
2021/08/11 05:19:54;;;;;;;11.55;5.10;;;;;;;14.32;100.00;94158.00;5074822;28;20202;-80
2021/08/11 05:22:22;;;;;;;10.00;4.82;;;;;;;14.44;100.00;94158.91;5074673;28;20195;-80
2021/08/11 05:24:49;;;;;;;17.38;5.43;;;;;;;14.53;100.00;94162.06;5074417;28;20556;-79
2021/08/11 05:27:17;;;;;;;14.73;4.78;;;;;;;14.61;100.00;94153.94;5074639;28;20195;-80
2021/08/11 05:29:50;;;;;;;13.07;4.63;;;;;;;14.70;100.00;94161.56;5074302;28;20199;-80
2021/08/11 05:32:19;;;;;;;11.63;4.63;;;;;;;14.76;100.00;94164.13;5074510;28;20207;-79
2021/08/11 05:34:46;;;;;;;14.60;4.95;;;;;;;14.82;100.00;94157.19;5074305;28;20210;-79
2021/08/11 05:37:13;;;;;;;7.72;4.13;;;;;;;14.88;100.00;94163.41;5074090;28;20256;-79
2021/08/11 05:39:40;;;;;;;10.32;4.32;;;;;;;14.91;100.00;94155.09;5074275;28;20233;-79
2021/08/11 05:42:06;;;;;;;7.65;4.18;;;;;;;14.93;100.00;94153.03;5074149;28;20230;-79
2021/08/11 05:44:36;;;;;;;9.52;4.57;;;;;;;15.00;100.00;94161.66;5073403;28;20473;-79
2021/08/11 05:47:08;;;;;;;10.30;4.53;;;;;;;15.04;100.00;94162.84;5074036;28;20569;-80
2021/08/11 05:49:38;;;;;;;6.53;4.30;;;;;;;15.13;100.00;94166.78;5073843;28;20203;-79
2021/08/11 05:52:05;;;;;;;10.05;4.50;;;;;;;15.23;100.00;94168.09;5073718;28;20199;-79
2021/08/11 05:54:32;;;;;;;8.90;3.88;;;;;;;15.24;100.00;94167.06;5073684;28;20604;-79
2021/08/11 05:56:58;;;;;;;6.55;3.97;;;;;;;15.35;100.00;94164.53;5073981;28;20400;-78
2021/08/11 05:59:30;;;;;;;10.45;4.43;;;;;;;15.43;100.00;94173.94;5073768;28;20226;-79
2021/08/11 06:01:58;;;;;;;11.52;4.30;;;;;;;15.55;100.00;94174.00;5073617;28;20202;-78
2021/08/11 06:04:27;;;;;;;7.53;4.05;;;;;;;15.73;100.00;94173.19;5073574;28;20199;-79
2021/08/11 06:06:56;;;;;;;9.73;4.15;;;;;;;15.85;100.00;94174.06;5074180;28;20286;-79
2021/08/11 06:09:22;;;;;;;7.80;3.80;;;;;;;15.96;100.00;94169.88;5073762;28;20199;-78
2021/08/11 06:11:49;;;;;;;12.65;4.03;;;;;;;16.07;100.00;94171.75;5073833;28;20234;-79
2021/08/11 06:14:15;;;;;;;8.80;3.72;;;;;;;16.32;100.00;94167.31;5073503;28;20282;-81
2021/08/11 06:16:44;;;;;;;10.07;3.75;;;;;;;16.51;100.00;94175.97;5073455;28;20202;-81
2021/08/11 06:19:10;;;;;;;8.90;3.88;;;;;;;16.71;100.00;94176.44;5073250;28;20194;-80
2021/08/11 06:21:38;;;;;;;8.30;3.30;;;;;;;17.05;100.00;94170.63;5073025;28;20225;-80
2021/08/11 06:24:05;;;;;;;6.07;3.42;;;;;;;17.54;100.00;94176.41;5073330;28;20207;-80
2021/08/11 06:26:32;;;;;;;6.18;3.33;;;;;;;18.08;100.00;94184.84;5073270;28;20567;-81
2021/08/11 06:28:58;;;;;;;11.30;2.95;;;;;;;18.40;100.00;94172.97;5073378;28;20630;-81
2021/08/11 06:31:26;;;;;;;5.13;2.60;;;;;;;18.56;100.00;94174.81;5073045;28;20253;-80
2021/08/11 06:33:53;;;;;;;5.10;2.80;;;;;;;18.82;100.00;94167.28;5073112;28;20221;-81
2021/08/11 06:36:19;;;;;;;5.35;2.80;;;;;;;18.75;100.00;94174.56;5073231;28;20226;-80
2021/08/11 06:38:50;;;;;;;6.72;2.97;;;;;;;18.80;100.00;94178.13;5073154;28;20297;-81
2021/08/11 06:41:17;;;;;;;5.55;3.00;;;;;;;18.66;100.00;94185.56;5073193;28;20211;-80
2021/08/11 06:43:44;;;;;;;4.95;3.10;;;;;;;18.60;100.00;94186.53;5073089;28;20198;-78
2021/08/11 06:46:12;;;;;;;6.22;2.78;;;;;;;18.74;100.00;94186.22;5072731;28;20705;-79
2021/08/11 06:48:39;;;;;;;10.77;2.80;;;;;;;18.72;100.00;94191.75;5073205;28;20210;-79
2021/08/11 06:51:08;;;;;;;7.63;3.28;;;;;;;18.68;100.00;94182.66;5072929;28;20310;-79
2021/08/11 06:53:38;;;;;;;7.57;3.33;;;;;;;18.79;100.00;94181.78;5072959;28;20222;-79
2021/08/11 06:56:06;;;;;;;6.05;2.85;;;;;;;18.99;100.00;94176.03;5072924;28;20199;-80
2021/08/11 06:58:34;;;;;;;6.38;2.90;;;;;;;19.21;100.00;94184.00;5072722;28;20209;-80
2021/08/11 07:01:01;;;;;;;15.20;3.20;;;;;;;19.27;100.00;94178.78;5072770;28;20211;-80
2021/08/11 07:03:27;;;;;;;7.10;3.08;;;;;;;19.40;100.00;94179.25;5072862;28;20260;-79
2021/08/11 07:05:55;;;;;;;4.18;2.70;;;;;;;19.50;100.00;94185.69;5072257;28;20225;-79
2021/08/11 07:08:22;;;;;;;6.68;3.10;;;;;;;19.58;100.00;94180.81;5072830;28;20203;-80
2021/08/11 07:10:49;;;;;;;8.02;3.40;;;;;;;19.65;98.91;94193.03;5072769;28;20310;-80
2021/08/11 07:13:17;;;;;;;7.07;2.80;;;;;;;19.78;100.00;94187.41;5072597;28;20289;-79
2021/08/11 07:15:44;;;;;;;6.55;3.08;;;;;;;19.84;100.00;94197.00;5072877;28;20556;-80
2021/08/11 07:18:12;;;;;;;4.85;2.53;;;;;;;20.06;100.00;94185.59;5072857;28;20233;-79
2021/08/11 07:20:39;;;;;;;8.73;3.08;;;;;;;20.16;100.00;94191.00;5072753;28;20294;-80
2021/08/11 07:23:05;;;;;;;4.07;2.70;;;;;;;20.27;99.16;94186.59;5072629;28;20565;-80
2021/08/11 07:25:33;;;;;;;10.02;3.10;;;;;;;20.46;98.31;94187.81;5072590;28;20205;-81
2021/08/11 07:28:00;;;;;;;7.57;3.10;;;;;;;20.42;96.63;94193.91;5072462;28;20206;-80
2021/08/11 07:30:27;;;;;;;4.45;3.10;;;;;;;20.45;96.13;94180.13;5072648;28;20226;-80
2021/08/11 07:32:54;;;;;;;10.40;3.22;;;;;;;20.60;96.14;94179.44;5072594;28;20206;-80
2021/08/11 07:35:21;;;;;;;6.28;2.78;;;;;;;20.70;95.44;94174.28;5072622;28;20210;-80
2021/08/11 07:37:49;;;;;;;6.90;2.78;;;;;;;20.78;93.90;94175.66;5072416;28;20667;-81
2021/08/11 07:40:18;;;;;;;5.40;2.70;;;;;;;20.88;97.40;94175.72;5072427;28;20225;-80
2021/08/11 07:42:46;;;;;;;6.13;2.03;;;;;;;20.87;87.35;94174.13;5072632;28;20203;-80
2021/08/11 07:45:14;;;;;;;4.70;2.40;;;;;;;21.03;89.16;94167.88;5072325;28;20321;-81
2021/08/11 07:47:46;;;;;;;5.22;2.85;;;;;;;21.13;91.85;94172.44;5072292;28;20209;-80
2021/08/11 07:50:16;;;;;;;3.42;2.15;;;;;;;21.19;87.27;94170.63;5072310;28;20222;-80
2021/08/11 07:52:44;;;;;;;4.80;2.40;;;;;;;21.30;86.36;94172.28;5072361;28;20199;-80
2021/08/11 07:55:10;;;;;;;4.20;2.20;;;;;;;21.50;96.43;94178.75;5072204;28;20203;-80
2021/08/11 07:57:38;;;;;;;4.57;2.15;;;;;;;21.65;91.84;94181.50;5072378;28;20209;-80
2021/08/11 08:00:09;;;;;;;4.05;2.30;;;;;;;21.79;86.06;94174.63;5072444;28;20203;-80
2021/08/11 08:02:38;;;;;;;3.75;1.90;;;;;;;21.77;80.40;94175.97;5072286;28;20294;-80
2021/08/11 08:05:09;;;;;;;4.95;2.30;;;;;;;21.67;78.02;94174.06;5072169;28;20203;-80
2021/08/11 08:07:36;;;;;;;4.65;2.10;;;;;;;21.62;77.52;94174.06;5072173;28;20257;-80
2021/08/11 08:10:03;;;;;;;7.03;2.67;;;;;;;21.82;84.53;94170.69;5072274;28;20214;-80
2021/08/11 08:12:31;;;;;;;3.72;2.20;;;;;;;21.89;83.00;94170.44;5072249;28;20230;-81
2021/08/11 08:14:58;;;;;;;3.95;2.20;;;;;;;22.00;79.45;94174.72;5072106;28;20203;-80
2021/08/11 08:17:24;;;;;;;4.53;2.28;;;;;;;22.06;78.69;94173.66;5072415;28;20195;-80
2021/08/11 08:19:51;;;;;;;2.78;2.00;;;;;;;22.25;87.79;94183.81;5075605;28;20203;-80
2021/08/11 08:22:19;;;;;;;5.50;2.58;;;;;;;22.27;74.98;94174.50;5073564;28;20206;-80
2021/08/11 08:24:45;;;;;;;4.75;2.45;;;;;;;22.22;81.28;94176.38;5065760;28;20654;-80
2021/08/11 08:27:12;;;;;;;3.83;2.50;;;;;;;22.23;79.71;94177.94;5075759;28;20218;-80
2021/08/11 08:29:39;;;;;;;4.43;2.30;;;;;;;22.38;77.14;94180.66;5075417;28;20237;-80
2021/08/11 08:32:06;;;;;;;4.63;2.40;;;;;;;22.58;84.81;94181.75;5074844;28;20219;-81
2021/08/11 08:34:36;;;;;;;3.50;2.00;;;;;;;22.62;78.65;94172.97;5075328;28;20199;-80
2021/08/11 08:37:02;;;;;;;3.75;2.30;;;;;;;22.50;83.14;94175.13;5075582;28;20207;-80
2021/08/11 08:39:30;;;;;;;6.28;2.60;;;;;;;22.63;87.14;94174.59;5075429;28;20562;-80
2021/08/11 08:41:57;;;;;;;4.63;2.60;;;;;;;22.69;86.59;94172.72;5075349;28;20210;-80
2021/08/11 08:44:23;;;;;;;3.60;2.17;;;;;;;22.67;80.97;94177.50;5075048;28;20223;-81
2021/08/11 08:46:52;;;;;;;5.45;2.55;;;;;;;22.76;77.97;94167.13;5075194;28;20203;-80
2021/08/11 08:49:19;;;;;;;4.57;2.50;;;;;;;22.87;79.44;94169.50;5075261;28;20199;-80
2021/08/11 08:51:47;;;;;;;6.73;2.90;;;;;;;22.84;89.89;94167.38;5074827;28;20493;-81
2021/08/11 08:54:21;;;;;;;4.78;2.70;;;;;;;22.88;76.85;94167.63;5075264;28;20286;-80
2021/08/11 08:56:49;;;;;;;5.25;2.97;;;;;;;22.90;79.04;94171.63;5075268;28;20209;-80
2021/08/11 08:59:16;;;;;;;5.53;2.60;;;;;;;23.04;78.36;94181.75;5075596;28;20218;-79
2021/08/11 09:01:43;;;;;;;7.60;2.83;;;;;;;23.17;85.10;94175.91;5074896;28;20202;-79
2021/08/11 09:04:09;;;;;;;5.05;2.60;;;;;;;23.12;77.07;94175.91;5075096;28;20195;-79
2021/08/11 09:06:39;;;;;;;3.78;2.50;;;;;;;23.12;75.95;94183.13;5074959;28;20198;-79
2021/08/11 09:09:08;;;;;;;5.22;2.38;;;;;;;23.32;78.94;94190.28;5074717;28;20612;-80
2021/08/11 09:11:35;;;;;;;4.90;2.50;;;;;;;22.84;74.46;94194.00;5074645;28;20693;-80
2021/08/11 09:14:25;;;;;;;5.43;2.70;;;;;;;22.62;73.67;94190.81;5074610;28;20209;-80
2021/08/11 09:16:53;;;;;;;8.20;2.72;;;;;;;22.64;76.01;94192.13;5074879;28;20202;-80
2021/08/11 09:19:21;;;;;;;6.90;3.08;;;;;;;22.87;75.39;94190.03;5074738;28;20293;-81
2021/08/11 09:22:00;;;;;;;6.25;2.85;;;;;;;23.21;78.04;94184.94;5074192;28;20199;-81
2021/08/11 09:24:27;;;;;;;6.95;3.30;;;;;;;23.61;78.05;94183.22;5054460;28;20202;-80
2021/08/11 09:26:55;;;;;;;3.13;2.33;;;;;;;23.57;76.25;94195.53;5054380;28;20658;-80
2021/08/11 09:29:23;;;;;;;4.43;2.63;;;;;;;23.62;72.33;94195.50;5053969;28;20210;-80
2021/08/11 09:31:49;;;;;;;6.30;2.95;;;;;;;23.33;75.15;94195.34;5063523;28;20257;-80
2021/08/11 09:34:16;;;;;;;4.60;2.58;;;;;;;23.26;72.62;94194.78;5074291;28;20298;-80
2021/08/11 09:36:44;;;;;;;7.85;3.00;;;;;;;23.62;80.61;94189.38;5074252;28;20309;-80
2021/08/11 09:39:10;;;;;;;6.18;2.95;;;;;;;23.54;71.75;94189.94;5074500;28;20660;-81
2021/08/11 09:41:59;;;;;;;7.63;3.03;;;;;;;23.73;73.65;94187.47;5073983;28;20202;-81
2021/08/11 09:44:29;;;;;;;4.32;2.80;;;;;;;24.09;77.94;94190.81;5074248;28;20764;-81
2021/08/11 09:47:10;;;;;;;7.80;2.83;;;;;;;24.01;74.68;94194.03;5074043;28;20199;-80
2021/08/11 09:49:36;;;;;;;6.65;3.10;;;;;;;24.08;70.55;94188.41;5073945;28;20195;-80
2021/08/11 09:52:04;;;;;;;4.90;3.50;;;;;;;23.81;65.56;94189.56;5074072;28;20230;-80
2021/08/11 09:54:34;;;;;;;13.63;4.20;;;;;;;23.75;63.83;94194.13;5074064;28;20209;-78
2021/08/11 09:57:03;;;;;;;4.53;3.30;;;;;;;23.44;68.26;94190.75;5074080;28;20202;-80
2021/08/11 09:59:58;;;;;;;4.05;3.08;;;;;;;23.34;64.40;94196.13;5073860;28;20602;-80
2021/08/11 10:02:26;;;;;;;5.45;3.45;;;;;;;23.27;63.56;94193.72;5074013;28;20199;-80
2021/08/11 10:04:52;;;;;;;5.90;3.45;;;;;;;23.44;66.06;94190.75;5073837;28;20205;-79
2021/08/11 10:07:19;;;;;;;5.95;3.67;;;;;;;23.69;68.77;94191.75;5073681;28;20199;-80
2021/08/11 10:10:00;;;;;;;6.85;3.40;;;;;;;23.95;65.83;94190.63;5073604;28;20206;-80
2021/08/11 10:12:28;;;;;;;6.15;3.40;;;;;;;24.10;63.91;94194.25;5073424;28;20587;-81
2021/08/11 10:14:58;;;;;;;5.90;3.90;;;;;;;24.27;65.30;94197.38;5073705;28;20199;-81
2021/08/11 10:17:29;;;;;;;8.50;3.40;;;;;;;24.64;71.89;94189.97;5073578;28;20202;-81
2021/08/11 10:19:57;;;;;;;6.60;3.78;;;;;;;24.55;69.90;94197.78;5073529;28;20210;-80
2021/08/11 10:22:23;;;;;;;5.90;3.70;;;;;;;24.51;64.63;94197.47;5073414;28;20195;-80
2021/08/11 10:24:50;;;;;;;5.97;3.55;;;;;;;24.60;64.62;94197.75;5072723;28;20206;-79
2021/08/11 10:27:18;;;;;;;7.57;3.72;;;;;;;24.35;62.94;94188.00;5073456;28;20214;-80
2021/08/11 10:29:46;;;;;;;10.13;3.95;;;;;;;24.50;64.14;94187.13;5073388;28;20202;-80
2021/08/11 10:32:14;;;;;;;6.82;3.50;;;;;;;25.03;61.66;94195.28;5073536;28;20226;-80
2021/08/11 10:34:41;;;;;;;6.22;3.72;;;;;;;24.93;63.72;94192.66;5073318;28;20198;-81
2021/08/11 10:37:08;;;;;;;5.55;3.60;;;;;;;25.08;61.46;94189.88;5073225;28;20202;-80
2021/08/11 10:39:34;;;;;;;6.32;3.53;;;;;;;25.40;65.07;94190.41;5073179;28;20206;-80
2021/08/11 10:42:09;;;;;;;5.55;3.47;;;;;;;25.45;65.47;94188.47;5072310;28;20209;-80
2021/08/11 10:44:36;;;;;;;6.90;3.40;;;;;;;24.77;63.05;94200.03;5073124;28;20237;-81
2021/08/11 10:47:04;;;;;;;8.57;3.28;;;;;;;24.94;62.44;94186.25;5073119;28;20203;-81
2021/08/11 10:49:32;;;;;;;5.30;3.20;;;;;;;25.36;65.98;94192.06;5072966;28;20207;-80
2021/08/11 10:52:14;;;;;;;9.00;3.58;;;;;;;25.90;64.61;94190.13;5072794;28;20226;-80
2021/08/11 10:54:50;;;;;;;5.43;3.33;;;;;;;25.81;59.25;94192.63;5073122;28;20209;-80
2021/08/11 10:57:44;;;;;;;6.03;3.65;;;;;;;26.06;65.59;94188.88;5072905;28;20677;-80
2021/08/11 11:00:13;;;;;;;7.18;3.50;;;;;;;26.45;63.17;94185.13;5072829;28;20711;-80
2021/08/11 11:02:46;;;;;;;6.72;3.38;;;;;;;26.49;59.44;94183.47;5072748;28;20199;-80
2021/08/11 11:06:04;;;;;;;6.25;3.45;;;;;;;26.43;59.33;94179.28;5072971;28;20199;-80
2021/08/11 11:08:37;;;;;;;5.55;3.03;;;;;;;25.74;59.03;94187.63;5072724;28;20206;-80
2021/08/11 11:11:41;;;;;;;6.15;3.55;;;;;;;25.54;62.03;94182.50;5072953;28;20271;-79
2021/08/11 11:14:52;;;;;;;6.28;3.78;;;;;;;25.61;59.24;94186.44;5072955;28;20195;-80
2021/08/11 11:17:20;;;;;;;6.32;3.67;;;;;;;25.15;62.83;94186.88;5073064;28;20241;-80
2021/08/11 11:20:27;;;;;;;6.78;3.80;;;;;;;25.32;61.46;94183.81;5072736;28;20210;-80
2021/08/11 11:23:09;;;;;;;5.43;3.88;;;;;;;25.32;60.75;94185.69;5072774;28;20199;-79
2021/08/11 11:26:09;;;;;;;5.93;3.75;;;;;;;26.10;59.09;94184.53;5072631;28;20206;-80
2021/08/11 11:28:57;;;;;;;7.25;3.75;;;;;;;25.72;60.15;94180.97;5066375;28;20199;-79
2021/08/11 11:31:35;;;;;;;6.07;3.42;;;;;;;25.98;59.43;94181.47;5072499;28;20206;-80
2021/08/11 11:34:26;;;;;;;6.15;3.78;;;;;;;25.84;61.21;94182.13;5072666;28;20198;-80